createdAt,value
2019-02-26T00:07:18.233Z,2.77
2019-02-26T00:13:48.053Z,2.76
2019-02-26T00:20:17.551Z,2.68
2019-02-26T00:26:43.479Z,2.65
2019-02-26T00:33:09.530Z,2.58
2019-02-26T00:39:39.389Z,2.50
2019-02-26T00:45:45.806Z,2.57
2019-02-26T00:52:20.954Z,2.34
2019-02-26T00:58:50.314Z,2.42
2019-02-26T01:09:08.214Z,2.37
2019-02-26T01:15:32.710Z,2.28
2019-02-26T01:22:04.090Z,2.18
2019-02-26T01:28:33.499Z,2.21
2019-02-26T01:35:05.814Z,2.10
2019-02-26T01:41:33.957Z,2.08
2019-02-26T01:47:26.374Z,2.03
2019-02-26T01:53:55.517Z,2.02
2019-02-26T02:00:26.131Z,2.00
2019-02-26T02:10:33.395Z,2.03
2019-02-26T02:17:08.355Z,1.93
2019-02-26T02:23:38.748Z,1.83
2019-02-26T02:30:03.777Z,1.77
2019-02-26T02:36:33.845Z,1.79
2019-02-26T02:43:09.741Z,1.79
2019-02-26T02:48:57.977Z,1.79
2019-02-26T02:55:27.058Z,1.67
2019-02-26T03:01:57.005Z,1.76
2019-02-26T03:11:59.577Z,1.64
2019-02-26T03:18:27.482Z,1.43
2019-02-26T03:24:54.381Z,1.48
2019-02-26T03:31:19.998Z,1.47
2019-02-26T03:37:45.851Z,1.43
2019-02-26T03:43:41.713Z,1.46
2019-02-26T03:49:59.041Z,1.43
2019-02-26T03:56:24.080Z,1.36
2019-02-26T04:02:51.985Z,1.39
2019-02-26T04:13:05.980Z,1.45
2019-02-26T04:19:44.936Z,1.47
2019-02-26T04:26:50.098Z,1.47
2019-02-26T04:34:10.713Z,1.41
2019-02-26T04:41:22.579Z,1.35
2019-02-26T04:52:02.053Z,1.30
2019-02-26T04:58:29.856Z,1.35
2019-02-26T05:04:55.982Z,1.29
2019-02-26T05:14:56.603Z,1.21
2019-02-26T05:21:27.069Z,1.19
2019-02-26T05:27:50.988Z,1.24
2019-02-26T05:34:29.304Z,1.21
2019-02-26T05:41:08.273Z,1.15
2019-02-26T05:47:32.066Z,1.15
2019-02-26T05:54:01.747Z,1.12
2019-02-26T06:00:33.184Z,1.08
2019-02-26T06:06:59.890Z,1.05
2019-02-26T06:17:01.568Z,0.97
2019-02-26T06:23:28.270Z,0.99
2019-02-26T06:29:55.480Z,0.92
2019-02-26T06:36:21.506Z,0.88
2019-02-26T06:42:59.232Z,0.82
2019-02-26T06:49:02.621Z,0.82
2019-02-26T06:55:44.821Z,0.83
2019-02-26T07:02:28.270Z,0.82
2019-02-26T07:08:53.443Z,0.87
2019-02-26T07:18:54.582Z,0.81
2019-02-26T07:25:20.403Z,0.85
2019-02-26T07:31:47.244Z,0.84
2019-02-26T07:38:21.214Z,0.94
2019-02-26T07:44:46.963Z,1.01
2019-02-26T07:51:14.801Z,1.05
2019-02-26T07:57:41.254Z,1.10
2019-02-26T08:04:11.071Z,1.16
2019-02-26T08:10:50.388Z,1.25
2019-02-26T08:20:19.887Z,1.40
2019-02-26T08:26:49.944Z,1.50
2019-02-26T08:33:14.750Z,1.63
2019-02-26T08:39:57.408Z,1.75
2019-02-26T08:46:22.126Z,1.94
2019-02-26T08:52:50.038Z,2.12
2019-02-26T08:59:15.509Z,2.27
2019-02-26T09:05:42.030Z,2.49
2019-02-26T09:12:11.669Z,2.69
2019-02-26T09:22:14.970Z,2.98
2019-02-26T09:28:40.459Z,3.12
2019-02-26T09:35:24.659Z,3.32
2019-02-26T09:42:02.415Z,3.51
2019-02-26T09:48:42.563Z,3.68
2019-02-26T09:55:10.573Z,3.90
2019-02-26T10:01:37.860Z,4.07
2019-02-26T10:08:05.328Z,4.25
2019-02-26T10:14:31.106Z,4.47
2019-02-26T10:24:35.342Z,4.94
2019-02-26T10:31:03.875Z,5.22
2019-02-26T10:37:27.541Z,5.51
2019-02-26T10:44:06.492Z,5.78
2019-02-26T10:50:49.695Z,6.11
2019-02-26T10:57:20.023Z,6.42
2019-02-26T11:03:47.246Z,6.73
2019-02-26T11:10:20.817Z,7.12
2019-02-26T11:16:48.922Z,7.42
2019-02-26T11:26:51.599Z,8.05
2019-02-26T11:33:30.838Z,8.49
2019-02-26T11:39:57.710Z,8.83
2019-02-26T11:46:25.284Z,9.18
2019-02-26T11:52:54.956Z,9.49
2019-02-26T11:59:23.228Z,9.75
2019-02-26T12:05:50.864Z,10.08
2019-02-26T12:11:43.107Z,10.34
2019-02-26T12:18:13.072Z,10.55
2019-02-26T12:28:13.716Z,10.88
2019-02-26T12:34:41.331Z,11.04
2019-02-26T12:41:08.848Z,11.21
2019-02-26T12:47:35.852Z,11.42
2019-02-26T12:54:03.439Z,11.60
2019-02-26T13:00:34.720Z,11.89
2019-02-26T13:06:58.363Z,12.15
2019-02-26T13:13:07.133Z,12.36
2019-02-26T13:19:41.557Z,12.45
2019-02-26T13:29:57.126Z,12.89
2019-02-26T13:36:22.636Z,12.90
2019-02-26T13:42:56.585Z,12.98
2019-02-26T13:49:23.346Z,13.06
2019-02-26T13:55:53.302Z,13.25
2019-02-26T14:02:20.256Z,13.37
2019-02-26T14:08:47.857Z,13.49
2019-02-26T14:14:54.722Z,13.65
2019-02-26T14:21:22.353Z,13.83
2019-02-26T14:31:12.189Z,14.61
2019-02-26T14:37:38.856Z,15.52
2019-02-26T14:44:07.070Z,15.92
2019-02-26T14:50:33.127Z,15.95
2019-02-26T14:56:58.459Z,15.86
2019-02-26T15:03:26.351Z,15.86
2019-02-26T15:09:53.019Z,15.88
2019-02-26T15:16:19.449Z,15.87
2019-02-26T15:22:47.043Z,15.89
2019-02-26T15:32:50.017Z,15.95
2019-02-26T15:39:17.608Z,15.92
2019-02-26T15:45:51.583Z,15.96
2019-02-26T15:51:59.394Z,15.73
2019-02-26T15:58:29.018Z,15.46
2019-02-26T16:04:54.864Z,15.09
2019-02-26T16:11:21.904Z,14.79
2019-02-26T16:17:49.760Z,14.53
2019-02-26T16:24:17.585Z,14.22
2019-02-26T16:34:25.715Z,13.82
2019-02-26T16:41:04.914Z,13.51
2019-02-26T16:47:42.279Z,13.26
2019-02-26T16:53:34.279Z,13.00
2019-02-26T17:00:04.846Z,12.73
2019-02-26T17:06:30.665Z,12.63
2019-02-26T17:13:09.615Z,12.22
2019-02-26T17:19:35.433Z,12.01
2019-02-26T17:26:01.182Z,11.76
2019-02-26T17:36:17.355Z,11.40
2019-02-26T17:42:58.325Z,11.04
2019-02-26T17:49:28.816Z,10.83
2019-02-26T17:55:58.040Z,10.64
2019-02-26T18:02:38.011Z,10.36
2019-02-26T18:09:03.828Z,10.11
2019-02-26T18:15:31.465Z,10.01
2019-02-26T18:22:01.412Z,9.81
2019-02-26T18:28:47.396Z,9.72
2019-02-26T18:38:50.514Z,9.34
2019-02-26T18:45:27.985Z,9.14
2019-02-26T18:51:57.955Z,9.03
2019-02-26T18:58:37.284Z,8.80
2019-02-26T19:05:03.115Z,8.71
2019-02-26T19:11:28.921Z,8.53
2019-02-26T19:18:05.844Z,8.36
2019-02-26T19:24:18.531Z,8.28
2019-02-26T19:30:44.105Z,8.15
2019-02-26T19:40:47.321Z,7.93
2019-02-26T19:47:14.271Z,7.79
2019-02-26T19:53:53.902Z,7.69
2019-02-26T20:00:20.951Z,7.63
2019-02-26T20:06:48.787Z,7.51
2019-02-26T20:13:26.720Z,7.25
2019-02-26T20:19:52.457Z,7.23
2019-02-26T20:25:43.294Z,7.13
2019-02-26T20:32:12.618Z,6.88
2019-02-26T20:42:29.905Z,6.80
2019-02-26T20:49:12.269Z,6.77
2019-02-26T20:55:38.778Z,6.66
2019-02-26T21:02:04.237Z,6.49
2019-02-26T21:08:36.230Z,6.38
2019-02-26T21:15:04.136Z,6.32
2019-02-26T21:21:31.163Z,6.15
2019-02-26T21:27:23.707Z,6.15
2019-02-26T21:33:48.092Z,6.03
2019-02-26T21:43:14.062Z,5.94
2019-02-26T21:49:53.029Z,5.86
2019-02-26T21:56:18.833Z,5.54
2019-02-26T22:02:46.467Z,5.65
2019-02-26T22:09:30.644Z,5.51
2019-02-26T22:15:56.492Z,5.43
2019-02-26T22:22:26.233Z,5.35
2019-02-26T22:28:53.134Z,5.13
2019-02-26T22:35:31.758Z,5.10
2019-02-26T22:45:33.883Z,5.06
2019-02-26T22:51:34.662Z,5.02
2019-02-26T22:58:02.796Z,4.91
2019-02-26T23:56:25.602Z,4.18
